< < Back
Terminal Aerodrome Forecast


Current Version              Previous Versions:   1  2  3  4  5  6  7  8  9  

Terminal Aerodrome Forecast

886
FTUS42 KFFC 281739
TAFAHN
TAF
KAHN 281739Z 2818/0118 11012G18KT P6SM BKN100
     FM282100 07012KT P6SM SCT040 BKN090
     FM010300 08010KT P6SM SCT015 BKN035
     FM010600 08008KT 4SM -DZ BKN015
     FM011000 08012KT 2SM -RADZ OVC004
     FM011600 07008KT 2SM -RADZ OVC003=



Latest METAR

961
SAUS70 KWBC 281900
MTRAHN
METAR KAHN 281851Z 07007KT 040V110 10SM CLR 09/M04 A3056 RMK AO2 SLP354
T00941039 $


USA.gov is the U.S. government's official web portal to all federal, state and local government web resources and services.